Wetteren, Belgium
Current Conditions -  °F | °C
As of 3:50 PM on Monday 24 Nov 2014 (Local Time) from EBAW Reporting Station
Few Clouds Few Clouds  
Wind Chill: 50°   Ceiling: Unl
Heat Index: 50°   Visibility: 6mi
Dew Point: 39°   Wind: 5mph
Humidity: 66%   Direction: 360°N
Pressure: 30.3"   Gusts: NA
Location:  51.01°N, 3.88°E
Report Text: EBAW 241450Z 36004KT 9999 FEW031 10/04 Q1026 NOSIG
Loading
Personal Weather Stations






























Interactive Weather Map New forecast layout! Learn more

10-Day Weather Forecast

Advertisements
Track Severe Weather on mobile